Flight Track Log - Related Links

Times and Time Zones

All times are in EDT time to prevent confusion due to time zone crossing. See the UCA5000 flight status page for this flight to view local times or setup timezone preferences in your user account.

Time Position Orientation Groundspeed Altitude Reporting Facility
EDT Latitude Longitude Course Direction KTS MPH feet Rate Location/Type
Sat 04:42:44 PM 40.6500 -74.1833 304° West 144 166 1,300  Level New York TRACON
Sat 04:43:44 PM 40.6333 -74.2167 237° Southwest 180 207 2,600 1,526 Climbing New York TRACON
Sat 04:44:38 PM 40.6667 -74.2500 323° Northwest 182 209 4,200 1,737 Climbing New York TRACON
Sat 04:45:38 PM 40.7000 -74.2833 323° Northwest 168 193 5,900 1,650 Climbing New York TRACON
Sat 04:46:38 PM 40.7500 -74.3167 333° Northwest 184 212 7,500 1,381 Climbing New York TRACON
Sat 04:47:44 PM 40.8000 -74.3333 346° North 198 228 8,800 1,250 Climbing New York TRACON
Sat 04:48:00 PM 41.0565 -74.4494 304° West  Level Estimated
Sat 04:48:38 PM 40.8500 -74.3500 346° North 213 245 10,000  Level New York TRACON
Sat 04:49:44 PM 40.9167 -74.3833 339° North 244 281 10,100 48 Climbing New York TRACON
Sat 04:50:44 PM 41.0000 -74.4167 343° North 270 311 10,100 -47 Level New York TRACON
Sat 04:51:51 PM 41.0711 -74.4481 342° North 300 345 10,000 378 Descending New York Center
Sat 04:52:51 PM 41.1492 -74.4825 342° North 281 323 10,900 500 Climbing New York Center
Sat 04:53:51 PM 41.2128 -74.5081 343° North 265 305 11,000 400 Climbing New York Center
Sat 04:54:51 PM 41.2889 -74.5372 344° North 265 305 11,700 500 Climbing New York Center
Sat 04:55:51 PM 41.3483 -74.5656 340° North 260 299 12,000 150 Climbing New York Center
Sat 04:56:51 PM 41.4219 -74.6111 335° Northwest 260 299 12,000  Level New York Center
Sat 04:57:51 PM 41.4569 -74.6878 301° West 260 299 12,000  Level New York Center
Sat 04:58:51 PM 41.5000 -74.7733 304° West 260 299 12,000  Level New York Center
Sat 04:59:51 PM 41.5347 -74.8475 302° West 260 299 12,000  Level New York Center
Sat 05:01:27 PM 41.6242 -74.9561 318° Northwest 271 312 12,000  Level Boston Center
Sat 05:02:28 PM 41.6856 -75.0086 327° Northwest 266 306 12,000  Level Boston Center
Sat 05:03:28 PM 41.7489 -75.0614 328° Northwest 266 306 12,000  Level Boston Center
Sat 05:04:29 PM 41.8125 -75.1114 330° Northwest 271 312 12,000  Level Boston Center
Sat 05:05:27 PM 41.8697 -75.1556 330° Northwest 266 306 12,000  Level Boston Center
Sat 05:06:27 PM 41.9308 -75.2083 327° Northwest 266 306 12,000  Level Boston Center
Sat 05:07:27 PM 41.9944 -75.2558 331° Northwest 266 306 12,000  Level Boston Center
Sat 05:08:28 PM 42.0575 -75.3119 327° Northwest 271 312 12,000  Level Boston Center
Sat 05:09:28 PM 42.1211 -75.3569 332° Northwest 271 312 12,000  Level Boston Center
Sat 05:10:29 PM 42.1867 -75.3992 334° Northwest 261 300 12,000  Level Boston Center
Sat 05:11:29 PM 42.2522 -75.4472 332° Northwest 261 300 12,000  Level Boston Center
Sat 05:12:27 PM 42.3239 -75.4983 332° Northwest 261 300 12,000  Level Boston Center
Sat 05:13:28 PM 42.3850 -75.5406 333° Northwest 261 300 12,000  Level Boston Center
Sat 05:13:31 PM 42.3911 -75.5550 300° West 257 296 12,000  Level Boston Center
Sat 05:13:43 PM 42.4014 -75.5611 336° Northwest 256 295 12,000 -103 Level Boston Center
Sat 05:14:29 PM 42.4506 -75.5889 337° Northwest 261 300 11,900 -295 Descending Boston Center
Sat 05:14:44 PM 42.4625 -75.6036 318° Northwest 252 290 11,700 -500 Descending Boston Center
Sat 05:15:29 PM 42.5158 -75.6372 335° Northwest 261 300 11,400 -492 Descending Boston Center
Sat 05:15:45 PM 42.5342 -75.6525 328° Northwest 263 303 11,200 -414 Descending Boston Center
Sat 05:16:27 PM 42.5792 -75.6800 336° Northwest 261 300 11,000 -200 Descending Boston Center
Sat 05:16:45 PM 42.5975 -75.6953 328° Northwest 267 307 11,000 -98 Level Boston Center
Sat 05:17:28 PM 42.6428 -75.7231 336° Northwest 255 293 10,900 -295 Descending Boston Center
Sat 05:17:46 PM 42.6608 -75.7436 320° Northwest 256 295 10,700 -885 Descending Boston Center
Sat 05:18:29 PM 42.7081 -75.7689 339° North 261 300 10,000 -984 Descending Boston Center
Sat 05:18:47 PM 42.7261 -75.7897 320° Northwest 266 306 9,700 -1,034 Descending Boston Center
Sat 05:19:27 PM 42.7733 -75.8175 337° Northwest 262 302 9,000 -984 Descending Boston Center
Sat 05:19:48 PM 42.7894 -75.8328 325° Northwest 263 303 8,700 -1,000 Descending Boston Center
Sat 05:20:27 PM 42.8303 -75.8661 329° Northwest 256 295 8,000 -984 Descending Boston Center
Sat 05:20:49 PM 42.8461 -75.8894 313° West 247 284 7,700 -1,258 Descending Boston Center
Sat 05:21:29 PM 42.8956 -75.9094 343° North 248 285 6,700 -1,475 Descending Boston Center
Sat 05:21:50 PM 42.9144 -75.9106 358° North 269 310 6,200 -1,600 Descending Boston Center
Sat 05:22:29 PM 42.9625 -75.9075 North 253 291 5,100 -1,672 Descending Boston Center
Sat 05:22:51 PM 42.9933 -75.9206 343° North 264 304 4,500 -1,655 Descending Boston Center
Sat 05:23:27 PM 43.0389 -75.9289 352° North 258 297 3,500 -1,377 Descending Boston Center
Sat 05:23:52 PM 43.0592 -75.9500 323° Northwest 251 289 3,100 -1,082 Descending Boston Center
Sat 05:24:28 PM 43.0917 -75.9803 326° Northwest 242 278 2,400 -1,000 Descending Boston Center
Sat 05:24:52 PM 43.1053 -76.0067 305° West 198 228 2,100 -700 Descending Boston Center
Sat 05:25:28 PM 43.1150 -76.0300 300° West 208 239 1,700 -1,082 Descending Boston Center
Sat 05:25:53 PM 43.1100 -76.0608 257° West 123 142 1,000 -1,017 Descending Boston Center
Sat 05:26:27 PM 43.1136 -76.0753 289° West 153 176 700 -375 Descending Boston Center
Sat 05:27:29 PM 43.1083 -76.1064 257° West 124 143 400 -290 Descending Boston Center
Sat 05:29:00 PM 43.1000 -76.1000 North  Level FlightAware Approximate
Sat 05:36:00 PM 43.1112 -76.1063 North  Level Estimated
Sat 05:37:00 PM 43.1112 -76.1063 North  Level Estimated
Sat 05:38:00 PM 43.1112 -76.1063 North  Level Estimated
Sat 05:39:00 PM 43.1112 -76.1063 North  Level Estimated
Sat 05:40:00 PM 43.1112 -76.1063 North  Level Estimated
Sat 05:41:00 PM 43.1112 -76.1063 North  Level Estimated

Login

Don't have an account? Register now (free) for customized features, flight alerts, and more!